Главная страница
METAR-TAF:

METAR-TAF

Аэропорты :

Хай-левел, Альберта, Канада

широта: 58-37N, долгота: 117-10W, высота над уровнем моря: 338 м

Текущие метеонаблюдения

Эта сводка был подготовлена 39 минут назад, в 04:00 UTC
Штиль
Температура 9°C
Влажность 46%
Давление 1016 hPa
Видимость: 24.1 км
небольшая облачность на высоте 26000 фута

METAR: CYOJ 270400Z 00000KT 15SM FEW260 09/M02 A2999 RMK CI1 LAST STFD OBS/NEXT 271300 UTC SLP171

Время: 22:39 (04:39 UTC)

Прогноз

Эта сводка был подготовлена 4 часа и 1 минут назад, в 00:38 UTC
Прогноз действительный с 27-го 01 UTC до 27-го 13 UTC
Ветер 3 Узел переменных направлений
Видимость: 10 км
небольшая облачность на высоте 9000 фута

TAF: CYOJ 270038Z 2701/2713 VRB03KT P6SM FEW090 RMK NXT FCST BY 270700Z

Метеонаблюдения и прогнозы для более 4000 аэропортов (сводки METAR и TAF).

Имеющиеся станции представлены на карте желтыми и красными точками.

Чтобы увидеть название станции, наведите на нее мышь.

Затем щелкните, чтобы увидеть метеонаблюдения и метеопрогнозы.

Управление картой: чтобы увеличить масштаб, щелкните зеленые кнопки с черным крестиком; чтобы уменьшить масштаб, щелкните зеленую кнопку с тире; для просмотра соседних карт щелкайте зеленые стрелки.


METAR-TAF: